Time,TemperatureF,DewpointF,PressureIn,WindDirection,WindDirectionDegrees,WindSpeedMPH,WindSpeedGustMPH,Humidity,HourlyPrecipIn,Conditions,Clouds,dailyrainin,SoftwareType,DateUTC
2013-04-14 00:00:00,51.5,41.7,29.92,North,0,0.7,0.7,69,0.00,,,0.00,WUHU216HW,2013-04-14 04:00:00,
2013-04-14 00:01:00,51.5,41.7,29.92,North,0,0.4,0.7,69,0.00,,,0.00,WUHU216HW,2013-04-14 04:01:00,
2013-04-14 00:02:00,51.5,41.7,29.92,North,0,0.4,0.7,69,0.00,,,0.00,WUHU216HW,2013-04-14 04:02:00,
2013-04-14 00:07:00,51.3,41.5,29.92,North,0,0.0,0.7,69,0.00,,,0.00,WUHU216HW,2013-04-14 04:07:00,
2013-04-14 00:12:00,51.3,41.9,29.92,North,0,0.2,0.7,70,0.00,,,0.00,WUHU216HW,2013-04-14 04:12:00,
2013-04-14 00:17:00,51.3,41.9,29.93,North,0,0.0,0.2,70,0.00,,,0.00,WUHU216HW,2013-04-14 04:17:00,
2013-04-14 00:21:00,51.1,42.1,29.93,North,0,0.0,0.0,71,0.00,,,0.00,WUHU216HW,2013-04-14 04:21:00,
2013-04-14 00:22:00,51.1,42.1,29.93,North,0,0.0,0.2,71,0.00,,,0.00,WUHU216HW,2013-04-14 04:22:00,
2013-04-14 00:27:00,51.1,42.1,29.93,North,0,0.0,0.0,71,0.00,,,0.00,WUHU216HW,2013-04-14 04:27:00,
2013-04-14 00:51:00,50.8,42.1,29.94,NNW,338,0.2,0.2,72,0.00,,,0.00,WUHU216HW,2013-04-14 04:51:00,
2013-04-14 00:56:00,50.6,42.0,29.94,North,0,0.0,0.2,72,0.00,,,0.00,WUHU216HW,2013-04-14 04:56:00,
2013-04-14 01:01:00,50.2,41.9,29.94,North,0,0.0,0.2,73,0.00,,,0.00,WUHU216HW,2013-04-14 05:01:00,
2013-04-14 01:06:00,50.2,41.9,29.94,North,0,0.0,0.0,73,0.00,,,0.00,WUHU216HW,2013-04-14 05:06:00,
2013-04-14 01:12:00,50.2,41.9,29.94,North,0,0.0,0.0,73,0.00,,,0.00,WUHU216HW,2013-04-14 05:12:00,
2013-04-14 01:32:00,49.5,41.9,29.95,North,0,0.0,0.0,75,0.00,,,0.00,WUHU216HW,2013-04-14 05:32:00,
2013-04-14 01:37:00,49.3,41.7,29.95,North,0,0.0,0.0,75,0.00,,,0.00,WUHU216HW,2013-04-14 05:37:00,
2013-04-14 01:42:00,49.3,41.7,29.95,NNE,23,0.0,0.0,75,0.00,,,0.00,WUHU216HW,2013-04-14 05:42:00,
2013-04-14 01:47:00,49.1,41.5,29.95,NNE,23,0.0,0.0,75,0.00,,,0.00,WUHU216HW,2013-04-14 05:47:00,
2013-04-14 01:52:00,48.8,41.5,29.95,NNE,23,0.0,0.0,76,0.00,,,0.00,WUHU216HW,2013-04-14 05:52:00,
2013-04-14 01:57:00,49.0,41.7,29.95,NE,45,0.0,0.0,76,0.00,,,0.00,WUHU216HW,2013-04-14 05:57:00,
2013-04-14 02:02:00,49.0,42.0,29.95,NE,45,0.0,0.0,77,0.00,,,0.00,WUHU216HW,2013-04-14 06:02:00,
2013-04-14 02:07:00,49.1,42.2,29.95,ESE,113,0.0,0.0,77,0.00,,,0.00,WUHU216HW,2013-04-14 06:07:00,
2013-04-14 02:12:00,49.3,42.0,29.95,ESE,113,0.0,0.0,76,0.00,,,0.00,WUHU216HW,2013-04-14 06:12:00,
2013-04-14 02:17:00,49.5,42.2,29.96,ESE,113,0.0,0.0,76,0.00,,,0.00,WUHU216HW,2013-04-14 06:17:00,
2013-04-14 02:23:00,49.5,41.9,29.95,ESE,113,0.0,0.0,75,0.00,,,0.00,WUHU216HW,2013-04-14 06:23:00,
2013-04-14 02:28:00,49.3,42.0,29.96,NNE,23,0.7,0.7,76,0.00,,,0.00,WUHU216HW,2013-04-14 06:28:00,
2013-04-14 02:33:00,49.3,42.0,29.96,NNE,23,0.0,0.7,76,0.00,,,0.00,WUHU216HW,2013-04-14 06:33:00,
2013-04-14 02:38:00,49.3,42.0,29.95,SSW,203,0.0,0.7,76,0.00,,,0.00,WUHU216HW,2013-04-14 06:38:00,
2013-04-14 02:43:00,49.3,42.0,29.95,SSE,158,0.0,0.0,76,0.00,,,0.00,WUHU216HW,2013-04-14 06:43:00,
2013-04-14 02:48:00,49.7,42.4,29.95,SSW,203,2.5,2.5,76,0.00,,,0.00,WUHU216HW,2013-04-14 06:48:00,
2013-04-14 02:53:00,50.0,42.4,29.95,East,90,0.0,2.5,75,0.00,,,0.00,WUHU216HW,2013-04-14 06:53:00,
2013-04-14 02:58:00,50.0,42.4,29.96,SW,225,0.0,2.5,75,0.00,,,0.00,WUHU216HW,2013-04-14 06:58:00,
2013-04-14 03:03:00,49.9,41.9,29.96,NE,45,0.0,0.0,74,0.00,,,0.00,WUHU216HW,2013-04-14 07:03:00,
2013-04-14 03:08:00,49.7,41.7,29.96,SSE,158,0.0,0.0,74,0.00,,,0.00,WUHU216HW,2013-04-14 07:08:00,
2013-04-14 03:13:00,49.5,41.5,29.96,SSW,203,0.0,0.0,74,0.00,,,0.00,WUHU216HW,2013-04-14 07:13:00,
2013-04-14 03:18:00,49.3,41.0,29.96,SSW,203,0.0,0.0,73,0.00,,,0.00,WUHU216HW,2013-04-14 07:18:00,
2013-04-14 03:23:00,49.0,40.6,29.96,SSW,203,0.0,0.0,73,0.00,,,0.00,WUHU216HW,2013-04-14 07:23:00,
2013-04-14 03:29:00,48.6,40.6,29.97,NE,45,0.2,0.4,74,0.00,,,0.00,WUHU216HW,2013-04-14 07:29:00,
2013-04-14 03:34:00,48.4,40.4,29.97,SSW,203,0.7,0.7,74,0.00,,,0.00,WUHU216HW,2013-04-14 07:34:00,
2013-04-14 03:39:00,48.2,40.2,29.97,ENE,68,0.0,0.7,74,0.00,,,0.00,WUHU216HW,2013-04-14 07:39:00,
2013-04-14 03:44:00,48.2,40.2,29.97,NE,45,0.0,0.7,74,0.00,,,0.00,WUHU216HW,2013-04-14 07:44:00,
2013-04-14 03:49:00,47.9,40.0,29.97,NE,45,0.0,0.0,74,0.00,,,0.00,WUHU216HW,2013-04-14 07:49:00,
2013-04-14 03:54:00,47.7,39.8,29.97,NE,45,0.0,0.0,74,0.00,,,0.00,WUHU216HW,2013-04-14 07:54:00,
2013-04-14 03:59:00,47.5,39.6,29.97,NE,45,0.0,0.0,74,0.00,,,0.00,WUHU216HW,2013-04-14 07:59:00,
2013-04-14 04:04:00,47.3,39.4,29.97,NE,45,0.0,0.0,74,0.00,,,0.00,WUHU216HW,2013-04-14 08:04:00,
2013-04-14 04:09:00,47.2,39.2,29.97,NE,45,0.0,0.0,74,0.00,,,0.00,WUHU216HW,2013-04-14 08:09:00,
2013-04-14 04:14:00,47.3,39.8,29.97,North,0,0.0,0.0,75,0.00,,,0.00,WUHU216HW,2013-04-14 08:14:00,
2013-04-14 04:19:00,47.2,39.6,29.97,North,0,0.0,0.0,75,0.00,,,0.00,WUHU216HW,2013-04-14 08:19:00,
2013-04-14 04:24:00,47.0,39.4,29.97,NNE,23,0.0,0.0,75,0.00,,,0.00,WUHU216HW,2013-04-14 08:24:00,
2013-04-14 04:29:00,47.0,39.4,29.97,NNE,23,0.0,0.0,75,0.00,,,0.00,WUHU216HW,2013-04-14 08:29:00,
2013-04-14 04:34:00,46.8,39.3,29.98,NNE,23,0.4,0.4,75,0.00,,,0.00,WUHU216HW,2013-04-14 08:34:00,
2013-04-14 04:39:00,46.8,39.3,29.98,North,0,0.0,0.4,75,0.00,,,0.00,WUHU216HW,2013-04-14 08:39:00,
2013-04-14 04:44:00,47.0,39.4,29.98,NNE,23,1.8,1.8,75,0.00,,,0.00,WUHU216HW,2013-04-14 08:44:00,
2013-04-14 04:49:00,47.0,39.4,29.99,WSW,248,0.0,1.8,75,0.00,,,0.00,WUHU216HW,2013-04-14 08:49:00,
2013-04-14 04:55:00,47.0,39.4,29.99,NE,45,0.4,1.8,75,0.00,,,0.00,WUHU216HW,2013-04-14 08:55:00,
2013-04-14 05:00:00,46.8,39.0,29.99,NNE,23,0.0,0.4,74,0.00,,,0.00,WUHU216HW,2013-04-14 09:00:00,
2013-04-14 05:05:00,46.6,38.8,29.99,NNE,23,0.0,0.0,74,0.00,,,0.00,WUHU216HW,2013-04-14 09:05:00,
2013-04-14 05:10:00,46.3,38.4,29.99,NNE,23,0.0,0.0,74,0.00,,,0.00,WUHU216HW,2013-04-14 09:10:00,
2013-04-14 05:15:00,46.1,38.3,29.99,NNE,23,0.0,0.0,74,0.00,,,0.00,WUHU216HW,2013-04-14 09:15:00,
2013-04-14 05:20:00,46.1,38.6,29.99,NNE,23,0.4,0.4,75,0.00,,,0.00,WUHU216HW,2013-04-14 09:20:00,
2013-04-14 05:25:00,45.9,38.4,29.99,NNE,23,0.0,0.4,75,0.00,,,0.00,WUHU216HW,2013-04-14 09:25:00,
2013-04-14 05:30:00,45.9,38.4,30.00,NNE,23,0.4,0.4,75,0.00,,,0.00,WUHU216HW,2013-04-14 09:30:00,
2013-04-14 05:35:00,45.7,38.3,30.00,NNE,23,0.0,0.4,75,0.00,,,0.00,WUHU216HW,2013-04-14 09:35:00,
2013-04-14 05:40:00,45.7,38.3,30.00,NNE,23,0.0,0.0,75,0.00,,,0.00,WUHU216HW,2013-04-14 09:40:00,
2013-04-14 05:45:00,45.7,38.3,30.00,NNE,23,0.2,0.4,75,0.00,,,0.00,WUHU216HW,2013-04-14 09:45:00,
2013-04-14 05:50:00,45.5,38.1,30.01,NNE,23,0.0,0.4,75,0.00,,,0.00,WUHU216HW,2013-04-14 09:50:00,
2013-04-14 05:55:00,45.0,37.2,30.01,NNE,23,0.0,0.0,74,0.00,,,0.00,WUHU216HW,2013-04-14 09:55:00,
2013-04-14 06:00:00,45.0,37.2,30.01,NNE,23,0.0,0.0,74,0.00,,,0.00,WUHU216HW,2013-04-14 10:00:00,
2013-04-14 06:05:00,44.8,37.0,30.01,NNE,23,0.4,0.7,74,0.00,,,0.00,WUHU216HW,2013-04-14 10:05:00,
2013-04-14 06:10:00,44.8,37.0,30.01,NNE,23,0.0,0.7,74,0.00,,,0.00,WUHU216HW,2013-04-14 10:10:00,
2013-04-14 06:16:00,44.8,37.0,30.01,NNE,23,0.0,0.4,74,0.00,,,0.00,WUHU216HW,2013-04-14 10:16:00,
2013-04-14 06:21:00,44.6,36.8,30.01,NNE,23,0.0,0.0,74,0.00,,,0.00,WUHU216HW,2013-04-14 10:21:00,
2013-04-14 06:26:00,44.5,36.6,30.01,NE,45,0.0,0.0,74,0.00,,,0.00,WUHU216HW,2013-04-14 10:26:00,
2013-04-14 06:31:00,44.3,36.8,30.02,NE,45,0.0,0.0,75,0.00,,,0.00,WUHU216HW,2013-04-14 10:31:00,
2013-04-14 06:36:00,43.9,36.5,30.02,NE,45,0.0,0.0,75,0.00,,,0.00,WUHU216HW,2013-04-14 10:36:00,
2013-04-14 06:41:00,43.7,36.6,30.02,NE,45,0.0,0.0,76,0.00,,,0.00,WUHU216HW,2013-04-14 10:41:00,
2013-04-14 06:46:00,43.7,36.6,30.03,NE,45,0.0,0.0,76,0.00,,,0.00,WUHU216HW,2013-04-14 10:46:00,
2013-04-14 06:51:00,43.7,36.6,30.03,NNE,23,0.0,0.0,76,0.00,,,0.00,WUHU216HW,2013-04-14 10:51:00,
2013-04-14 06:56:00,43.7,37.0,30.04,NNE,23,0.0,0.0,77,0.00,,,0.00,WUHU216HW,2013-04-14 10:56:00,
2013-04-14 07:01:00,43.9,37.2,30.04,NNE,23,0.4,0.4,77,0.00,,,0.00,WUHU216HW,2013-04-14 11:01:00,
2013-04-14 07:06:00,44.5,37.7,30.05,NE,45,0.0,0.4,77,0.00,,,0.00,WUHU216HW,2013-04-14 11:06:00,
2013-04-14 07:11:00,44.8,38.1,30.05,NNE,23,0.4,0.4,77,0.00,,,0.00,WUHU216HW,2013-04-14 11:11:00,
2013-04-14 07:16:00,45.2,38.4,30.05,NE,45,0.0,0.4,77,0.00,,,0.00,WUHU216HW,2013-04-14 11:16:00,
2013-04-14 07:22:00,45.7,39.0,30.06,NE,45,0.0,0.4,77,0.00,,,0.00,WUHU216HW,2013-04-14 11:22:00,
2013-04-14 07:27:00,46.3,39.5,30.06,NE,45,0.0,0.4,77,0.00,,,0.00,WUHU216HW,2013-04-14 11:27:00,
2013-04-14 07:32:00,46.6,40.1,30.07,NE,45,0.0,0.0,78,0.00,,,0.00,WUHU216HW,2013-04-14 11:32:00,
2013-04-14 07:37:00,46.8,40.0,30.07,ENE,68,0.4,0.4,77,0.00,,,0.00,WUHU216HW,2013-04-14 11:37:00,
2013-04-14 07:42:00,47.5,40.3,30.07,East,90,0.2,0.4,76,0.00,,,0.00,WUHU216HW,2013-04-14 11:42:00,
2013-04-14 07:47:00,48.4,41.1,30.07,SE,135,0.9,0.9,76,0.00,,,0.00,WUHU216HW,2013-04-14 11:47:00,
2013-04-14 07:52:00,49.3,41.7,30.08,SSE,158,0.4,0.9,75,0.00,,,0.00,WUHU216HW,2013-04-14 11:52:00,
2013-04-14 07:57:00,50.4,41.8,30.08,South,180,0.0,1.1,72,0.00,,,0.00,WUHU216HW,2013-04-14 11:57:00,
2013-04-14 08:02:00,50.9,40.8,30.09,South,180,3.8,3.8,68,0.00,,,0.00,WUHU216HW,2013-04-14 12:02:00,
2013-04-14 08:07:00,51.7,41.0,30.09,SE,135,1.1,3.8,67,0.00,,,0.00,WUHU216HW,2013-04-14 12:07:00,
2013-04-14 08:12:00,52.6,41.5,30.09,East,90,0.2,3.8,66,0.00,,,0.00,WUHU216HW,2013-04-14 12:12:00,
2013-04-14 08:17:00,52.9,41.4,30.09,SSW,203,0.7,1.8,65,0.00,,,0.00,WUHU216HW,2013-04-14 12:17:00,
2013-04-14 08:22:00,54.0,41.7,30.09,SW,225,1.1,1.8,63,0.00,,,0.00,WUHU216HW,2013-04-14 12:22:00,
2013-04-14 08:27:00,54.7,41.5,30.10,NW,315,0.4,5.1,61,0.00,,,0.00,WUHU216HW,2013-04-14 12:27:00,
2013-04-14 08:33:00,55.6,42.4,30.10,SE,135,2.9,5.1,61,0.00,,,0.00,WUHU216HW,2013-04-14 12:33:00,
2013-04-14 08:38:00,56.2,41.0,30.10,SE,135,0.4,2.9,57,0.00,,,0.00,WUHU216HW,2013-04-14 12:38:00,
2013-04-14 08:43:00,55.8,39.8,30.10,SW,225,2.7,2.9,55,0.00,,,0.00,WUHU216HW,2013-04-14 12:43:00,
2013-04-14 08:48:00,55.6,39.2,30.10,South,180,1.3,2.7,54,0.00,,,0.00,WUHU216HW,2013-04-14 12:48:00,
2013-04-14 08:53:00,55.8,40.7,30.10,South,180,1.1,2.7,57,0.00,,,0.00,WUHU216HW,2013-04-14 12:53:00,
2013-04-14 08:58:00,56.0,40.0,30.10,SE,135,2.0,2.5,55,0.00,,,0.00,WUHU216HW,2013-04-14 12:58:00,
2013-04-14 09:03:00,56.0,40.4,30.10,South,180,2.2,2.5,56,0.00,,,0.00,WUHU216HW,2013-04-14 13:03:00,
2013-04-14 09:08:00,56.7,40.7,30.10,South,180,3.1,3.1,55,0.00,,,0.00,WUHU216HW,2013-04-14 13:08:00,
2013-04-14 09:13:00,57.4,41.0,30.11,South,180,2.5,3.1,54,0.00,,,0.00,WUHU216HW,2013-04-14 13:13:00,
2013-04-14 09:18:00,58.3,41.8,30.11,South,180,0.0,3.1,54,0.00,,,0.00,WUHU216HW,2013-04-14 13:18:00,
2013-04-14 09:23:00,58.7,41.6,30.11,South,180,2.0,2.5,53,0.00,,,0.00,WUHU216HW,2013-04-14 13:23:00,
2013-04-14 09:28:00,59.0,41.4,30.10,South,180,0.7,2.5,52,0.00,,,0.00,WUHU216HW,2013-04-14 13:28:00,
2013-04-14 09:33:00,59.6,41.0,30.10,SSE,158,2.0,4.0,50,0.00,,,0.00,WUHU216HW,2013-04-14 13:33:00,
2013-04-14 09:38:00,59.9,41.8,30.10,SSE,158,1.8,4.0,51,0.00,,,0.00,WUHU216HW,2013-04-14 13:38:00,
2013-04-14 09:43:00,59.9,40.1,30.10,SW,225,6.3,6.3,48,0.00,,,0.00,WUHU216HW,2013-04-14 13:43:00,
2013-04-14 09:48:00,60.1,40.3,30.11,SE,135,1.8,6.3,48,0.00,,,0.00,WUHU216HW,2013-04-14 13:48:00,
2013-04-14 09:54:00,60.3,41.0,30.11,SW,225,2.0,6.3,49,0.00,,,0.00,WUHU216HW,2013-04-14 13:54:00,
2013-04-14 09:59:00,61.0,40.6,30.11,East,90,1.1,2.0,47,0.00,,,0.00,WUHU216HW,2013-04-14 13:59:00,
2013-04-14 10:04:00,61.0,41.1,30.12,East,90,1.3,1.3,48,0.00,,,0.00,WUHU216HW,2013-04-14 14:04:00,
2013-04-14 10:09:00,61.6,41.6,30.11,SE,135,0.7,1.3,48,0.00,,,0.00,WUHU216HW,2013-04-14 14:09:00,
2013-04-14 10:14:00,61.4,40.3,30.12,ESE,113,1.8,1.8,46,0.00,,,0.00,WUHU216HW,2013-04-14 14:14:00,
2013-04-14 10:19:00,61.4,39.7,30.12,SW,225,0.4,1.8,45,0.00,,,0.00,WUHU216HW,2013-04-14 14:19:00,
2013-04-14 10:24:00,62.1,41.5,30.12,SSW,203,1.3,1.8,47,0.00,,,0.00,WUHU216HW,2013-04-14 14:24:00,
2013-04-14 10:29:00,62.5,41.3,30.12,SE,135,1.3,1.3,46,0.00,,,0.00,WUHU216HW,2013-04-14 14:29:00,
2013-04-14 10:34:00,62.3,40.5,30.12,ENE,68,0.4,2.5,45,0.00,,,0.00,WUHU216HW,2013-04-14 14:34:00,
2013-04-14 10:39:00,62.6,41.4,30.11,SE,135,1.8,2.5,46,0.00,,,0.00,WUHU216HW,2013-04-14 14:39:00,
2013-04-14 10:44:00,62.8,40.4,30.11,SW,225,2.5,2.5,44,0.00,,,0.00,WUHU216HW,2013-04-14 14:44:00,
2013-04-14 10:49:00,62.3,40.0,30.12,SSW,203,0.4,3.6,44,0.00,,,0.00,WUHU216HW,2013-04-14 14:49:00,
2013-04-14 10:54:00,62.5,40.7,30.12,SE,135,1.6,3.6,45,0.00,,,0.00,WUHU216HW,2013-04-14 14:54:00,
2013-04-14 10:59:00,62.8,39.9,30.12,SSE,158,3.6,3.6,43,0.00,,,0.00,WUHU216HW,2013-04-14 14:59:00,
2013-04-14 11:05:00,62.5,39.5,30.12,SW,225,0.4,3.6,43,0.00,,,0.00,WUHU216HW,2013-04-14 15:05:00,
2013-04-14 11:10:00,62.8,41.1,30.12,SSW,203,0.4,3.6,45,0.00,,,0.00,WUHU216HW,2013-04-14 15:10:00,
2013-04-14 11:15:00,63.0,39.4,30.12,SW,225,4.3,4.3,42,0.00,,,0.00,WUHU216HW,2013-04-14 15:15:00,
2013-04-14 11:20:00,62.5,40.2,30.12,East,90,1.3,4.3,44,0.00,,,0.00,WUHU216HW,2013-04-14 15:20:00,
2013-04-14 11:25:00,62.6,40.3,30.11,SSW,203,2.5,4.3,44,0.00,,,0.00,WUHU216HW,2013-04-14 15:25:00,
2013-04-14 11:30:00,62.6,39.7,30.11,West,270,1.8,2.5,43,0.00,,,0.00,WUHU216HW,2013-04-14 15:30:00,
2013-04-14 11:35:00,63.2,40.2,30.11,West,270,1.8,2.5,43,0.00,,,0.00,WUHU216HW,2013-04-14 15:35:00,
2013-04-14 11:40:00,63.7,41.2,30.12,SE,135,1.1,1.8,44,0.00,,,0.00,WUHU216HW,2013-04-14 15:40:00,
2013-04-14 11:45:00,63.9,40.9,30.11,SSW,203,1.1,1.1,43,0.00,,,0.00,WUHU216HW,2013-04-14 15:45:00,
2013-04-14 11:50:00,64.1,40.4,30.11,SW,225,2.2,2.2,42,0.00,,,0.00,WUHU216HW,2013-04-14 15:50:00,
2013-04-14 11:55:00,64.4,41.3,30.11,NW,315,1.1,2.2,43,0.00,,,0.00,WUHU216HW,2013-04-14 15:55:00,
2013-04-14 12:00:00,64.4,41.3,30.11,East,90,1.3,2.2,43,0.00,,,0.00,WUHU216HW,2013-04-14 16:00:00,
2013-04-14 12:05:00,64.8,41.7,30.11,SSE,158,1.3,1.8,43,0.00,,,0.00,WUHU216HW,2013-04-14 16:05:00,
2013-04-14 12:10:00,64.8,40.5,30.11,South,180,0.7,2.7,41,0.00,,,0.00,WUHU216HW,2013-04-14 16:10:00,
2013-04-14 12:15:00,64.6,41.0,30.11,SW,225,2.7,2.7,42,0.00,,,0.00,WUHU216HW,2013-04-14 16:15:00,
2013-04-14 12:21:00,64.4,40.8,30.10,SE,135,1.1,2.7,42,0.00,,,0.00,WUHU216HW,2013-04-14 16:21:00,
2013-04-14 12:26:00,64.8,40.5,30.10,SW,225,0.0,2.7,41,0.00,,,0.00,WUHU216HW,2013-04-14 16:26:00,
2013-04-14 12:31:00,65.2,40.9,30.10,SE,135,2.5,2.5,41,0.00,,,0.00,WUHU216HW,2013-04-14 16:31:00,
2013-04-14 12:36:00,65.2,40.9,30.10,ESE,113,3.1,3.1,41,0.00,,,0.00,WUHU216HW,2013-04-14 16:36:00,
2013-04-14 12:41:00,64.8,39.3,30.10,SW,225,1.8,3.1,39,0.00,,,0.00,WUHU216HW,2013-04-14 16:41:00,
2013-04-14 12:46:00,64.8,40.0,30.09,North,0,2.2,2.2,40,0.00,,,0.00,WUHU216HW,2013-04-14 16:46:00,
2013-04-14 12:51:00,65.2,40.9,30.09,NNW,338,1.8,2.2,41,0.00,,,0.00,WUHU216HW,2013-04-14 16:51:00,
2013-04-14 12:56:00,65.2,38.8,30.09,South,180,4.3,4.3,38,0.00,,,0.00,WUHU216HW,2013-04-14 16:56:00,
2013-04-14 13:01:00,64.8,39.3,30.09,SW,225,1.8,4.3,39,0.00,,,0.00,WUHU216HW,2013-04-14 17:01:00,
2013-04-14 13:07:00,65.0,39.3,30.09,ESE,113,3.1,4.3,39,0.00,,,0.00,WUHU216HW,2013-04-14 17:07:00,
2013-04-14 13:12:00,65.7,40.1,30.09,North,0,1.1,3.1,39,0.00,,,0.00,WUHU216HW,2013-04-14 17:12:00,
2013-04-14 13:17:00,66.1,40.3,30.08,SW,225,1.1,1.1,39,0.00,,,0.00,WUHU216HW,2013-04-14 17:17:00,
2013-04-14 13:22:00,66.2,40.5,30.08,East,90,1.1,1.1,39,0.00,,,0.00,WUHU216HW,2013-04-14 17:22:00,
2013-04-14 13:27:00,66.6,40.9,30.08,SSE,158,0.7,2.0,39,0.00,,,0.00,WUHU216HW,2013-04-14 17:27:00,
2013-04-14 13:33:00,66.6,40.9,30.08,ESE,113,1.1,2.0,39,0.00,,,0.00,WUHU216HW,2013-04-14 17:33:00,
2013-04-14 13:38:00,66.6,40.9,30.08,NNE,23,0.4,1.1,39,0.00,,,0.00,WUHU216HW,2013-04-14 17:38:00,
2013-04-14 13:43:00,66.6,40.9,30.08,SSE,158,1.8,1.8,39,0.00,,,0.00,WUHU216HW,2013-04-14 17:43:00,
2013-04-14 13:48:00,67.0,40.4,30.08,SSW,203,2.2,2.2,38,0.00,,,0.00,WUHU216HW,2013-04-14 17:48:00,
2013-04-14 13:53:00,67.3,41.5,30.08,NE,45,1.8,2.2,39,0.00,,,0.00,WUHU216HW,2013-04-14 17:53:00,
2013-04-14 13:58:00,67.5,41.6,30.08,NNE,23,2.5,2.5,39,0.00,,,0.00,WUHU216HW,2013-04-14 17:58:00,
2013-04-14 14:03:00,67.5,40.9,30.08,SE,135,0.4,2.5,38,0.00,,,0.00,WUHU216HW,2013-04-14 18:03:00,
2013-04-14 14:08:00,67.7,41.8,30.08,NE,45,1.1,2.5,39,0.00,,,0.00,WUHU216HW,2013-04-14 18:08:00,
2013-04-14 14:13:00,68.0,42.1,30.08,WSW,248,0.4,1.8,39,0.00,,,0.00,WUHU216HW,2013-04-14 18:13:00,
2013-04-14 14:18:00,68.2,42.3,30.08,ENE,68,1.1,1.8,39,0.00,,,0.00,WUHU216HW,2013-04-14 18:18:00,
2013-04-14 14:23:00,68.2,41.5,30.08,SSW,203,0.0,1.1,38,0.00,,,0.00,WUHU216HW,2013-04-14 18:23:00,
2013-04-14 14:28:00,68.2,40.8,30.08,South,180,4.0,4.0,37,0.00,,,0.00,WUHU216HW,2013-04-14 18:28:00,
2013-04-14 14:33:00,68.2,41.5,30.07,SE,135,1.1,4.0,38,0.00,,,0.00,WUHU216HW,2013-04-14 18:33:00,
2013-04-14 14:38:00,68.4,41.7,30.08,ESE,113,0.4,1.1,38,0.00,,,0.00,WUHU216HW,2013-04-14 18:38:00,
2013-04-14 14:43:00,68.9,42.2,30.08,ENE,68,1.8,1.8,38,0.00,,,0.00,WUHU216HW,2013-04-14 18:43:00,
2013-04-14 14:49:00,68.9,41.4,30.08,ESE,113,2.2,2.2,37,0.00,,,0.00,WUHU216HW,2013-04-14 18:49:00,
2013-04-14 14:54:00,68.8,41.3,30.08,ENE,68,0.7,2.2,37,0.00,,,0.00,WUHU216HW,2013-04-14 18:54:00,
2013-04-14 14:59:00,68.4,41.0,30.07,SSE,158,1.8,1.8,37,0.00,,,0.00,WUHU216HW,2013-04-14 18:59:00,
2013-04-14 15:04:00,68.4,41.0,30.07,SSW,203,2.9,2.9,37,0.00,,,0.00,WUHU216HW,2013-04-14 19:04:00,
2013-04-14 15:09:00,68.8,41.3,30.07,NE,45,1.3,2.9,37,0.00,,,0.00,WUHU216HW,2013-04-14 19:09:00,
2013-04-14 15:14:00,68.8,39.8,30.07,SW,225,0.4,1.3,35,0.00,,,0.00,WUHU216HW,2013-04-14 19:14:00,
2013-04-14 15:19:00,68.9,41.4,30.07,SE,135,0.4,1.3,37,0.00,,,0.00,WUHU216HW,2013-04-14 19:19:00,
2013-04-14 15:24:00,69.3,41.8,30.07,ENE,68,1.6,1.6,37,0.00,,,0.00,WUHU216HW,2013-04-14 19:24:00,
2013-04-14 15:29:00,69.5,42.0,30.07,SSE,158,0.4,1.6,37,0.00,,,0.00,WUHU216HW,2013-04-14 19:29:00,
2013-04-14 15:34:00,69.7,42.1,30.07,NE,45,1.6,1.6,37,0.00,,,0.00,WUHU216HW,2013-04-14 19:34:00,
2013-04-14 15:39:00,70.0,43.1,30.07,ENE,68,0.4,1.6,38,0.00,,,0.00,WUHU216HW,2013-04-14 19:39:00,
2013-04-14 15:44:00,70.2,42.6,30.06,SW,225,1.1,1.6,37,0.00,,,0.00,WUHU216HW,2013-04-14 19:44:00,
2013-04-14 15:49:00,70.2,41.1,30.06,ESE,113,1.1,1.1,35,0.00,,,0.00,WUHU216HW,2013-04-14 19:49:00,
2013-04-14 15:54:00,70.2,41.1,30.06,ESE,113,1.1,1.1,35,0.00,,,0.00,WUHU216HW,2013-04-14 19:54:00,
2013-04-14 16:00:00,70.4,42.8,30.06,NE,45,1.8,1.8,37,0.00,,,0.00,WUHU216HW,2013-04-14 20:00:00,
2013-04-14 16:05:00,70.9,43.2,30.06,ENE,68,0.7,1.8,37,0.00,,,0.00,WUHU216HW,2013-04-14 20:05:00,
2013-04-14 16:10:00,70.9,41.8,30.06,ENE,68,0.4,1.8,35,0.00,,,0.00,WUHU216HW,2013-04-14 20:10:00,
2013-04-14 16:15:00,70.7,41.6,30.06,SW,225,0.9,0.9,35,0.00,,,0.00,WUHU216HW,2013-04-14 20:15:00,
2013-04-14 16:20:00,70.7,41.6,30.06,ENE,68,0.9,0.9,35,0.00,,,0.00,WUHU216HW,2013-04-14 20:20:00,
2013-04-14 16:25:00,70.9,41.8,30.07,SE,135,0.2,0.9,35,0.00,,,0.00,WUHU216HW,2013-04-14 20:25:00,
2013-04-14 16:30:00,70.9,41.8,30.07,SW,225,0.0,0.9,35,0.00,,,0.00,WUHU216HW,2013-04-14 20:30:00,
2013-04-14 16:35:00,70.9,41.8,30.06,SSW,203,2.0,2.0,35,0.00,,,0.00,WUHU216HW,2013-04-14 20:35:00,
2013-04-14 16:40:00,71.3,41.3,30.06,SW,225,0.7,2.0,34,0.00,,,0.00,WUHU216HW,2013-04-14 20:40:00,
2013-04-14 16:45:00,71.1,42.0,30.06,SSW,203,0.0,0.7,35,0.00,,,0.00,WUHU216HW,2013-04-14 20:45:00,
2013-04-14 16:50:00,71.1,42.0,30.06,NNE,23,0.7,1.1,35,0.00,,,0.00,WUHU216HW,2013-04-14 20:50:00,
2013-04-14 16:55:00,70.7,41.6,30.06,SSW,203,1.8,1.8,35,0.00,,,0.00,WUHU216HW,2013-04-14 20:55:00,
2013-04-14 17:00:00,70.6,41.4,30.06,North,0,1.8,1.8,35,0.00,,,0.00,WUHU216HW,2013-04-14 21:00:00,
2013-04-14 17:05:00,70.6,41.4,30.06,WSW,248,1.1,1.8,35,0.00,,,0.00,WUHU216HW,2013-04-14 21:05:00,
2013-04-14 17:11:00,70.7,42.3,30.06,SW,225,0.0,1.8,36,0.00,,,0.00,WUHU216HW,2013-04-14 21:11:00,
2013-04-14 17:16:00,70.7,42.3,30.05,WSW,248,0.0,0.7,36,0.00,,,0.00,WUHU216HW,2013-04-14 21:16:00,
2013-04-14 17:21:00,70.7,40.9,30.05,SW,225,2.5,2.5,34,0.00,,,0.00,WUHU216HW,2013-04-14 21:21:00,
2013-04-14 17:26:00,70.2,41.9,30.05,ENE,68,0.4,2.5,36,0.00,,,0.00,WUHU216HW,2013-04-14 21:26:00,
2013-04-14 17:31:00,70.2,41.1,30.05,East,90,1.3,1.3,35,0.00,,,0.00,WUHU216HW,2013-04-14 21:31:00,
2013-04-14 17:36:00,70.0,42.4,30.06,North,0,0.4,1.3,37,0.00,,,0.00,WUHU216HW,2013-04-14 21:36:00,
2013-04-14 17:41:00,70.2,42.6,30.06,North,0,0.0,1.3,37,0.00,,,0.00,WUHU216HW,2013-04-14 21:41:00,
2013-04-14 17:46:00,69.8,42.2,30.06,WSW,248,0.2,0.2,37,0.00,,,0.00,WUHU216HW,2013-04-14 21:46:00,
2013-04-14 17:52:00,69.8,43.0,30.06,NNE,23,0.0,0.2,38,0.00,,,0.00,WUHU216HW,2013-04-14 21:52:00,
2013-04-14 17:57:00,69.5,42.0,30.07,SSE,158,0.0,0.2,37,0.00,,,0.00,WUHU216HW,2013-04-14 21:57:00,
2013-04-14 18:02:00,69.5,42.0,30.07,SW,225,1.1,1.1,37,0.00,,,0.00,WUHU216HW,2013-04-14 22:02:00,
2013-04-14 18:07:00,68.9,41.4,30.07,WSW,248,0.0,1.1,37,0.00,,,0.00,WUHU216HW,2013-04-14 22:07:00,
2013-04-14 18:12:00,68.9,41.4,30.07,WSW,248,1.8,1.8,37,0.00,,,0.00,WUHU216HW,2013-04-14 22:12:00,
2013-04-14 18:17:00,68.4,41.0,30.07,SW,225,0.7,1.8,37,0.00,,,0.00,WUHU216HW,2013-04-14 22:17:00,
2013-04-14 18:22:00,68.2,40.8,30.07,SSW,203,0.0,1.8,37,0.00,,,0.00,WUHU216HW,2013-04-14 22:22:00,
2013-04-14 18:27:00,68.0,40.6,30.07,SW,225,1.8,1.8,37,0.00,,,0.00,WUHU216HW,2013-04-14 22:27:00,
2013-04-14 18:32:00,67.9,40.5,30.07,WSW,248,0.7,1.8,37,0.00,,,0.00,WUHU216HW,2013-04-14 22:32:00,
2013-04-14 18:37:00,67.7,41.0,30.07,WSW,248,0.0,1.8,38,0.00,,,0.00,WUHU216HW,2013-04-14 22:37:00,
2013-04-14 18:43:00,67.5,40.9,30.07,SW,225,1.1,1.1,38,0.00,,,0.00,WUHU216HW,2013-04-14 22:43:00,
2013-04-14 18:48:00,67.3,40.0,30.07,SW,225,2.0,2.0,37,0.00,,,0.00,WUHU216HW,2013-04-14 22:48:00,
2013-04-14 18:53:00,67.1,41.3,30.07,WSW,248,0.4,2.0,39,0.00,,,0.00,WUHU216HW,2013-04-14 22:53:00,
2013-04-14 18:58:00,67.0,40.4,30.07,SW,225,0.9,2.0,38,0.00,,,0.00,WUHU216HW,2013-04-14 22:58:00,
2013-04-14 19:03:00,66.8,40.2,30.07,WSW,248,0.0,0.9,38,0.00,,,0.00,WUHU216HW,2013-04-14 23:03:00,
2013-04-14 19:08:00,66.4,40.0,30.08,West,270,0.0,0.9,38,0.00,,,0.00,WUHU216HW,2013-04-14 23:08:00,
2013-04-14 19:13:00,66.2,39.8,30.08,West,270,0.0,0.0,38,0.00,,,0.00,WUHU216HW,2013-04-14 23:13:00,
2013-04-14 19:18:00,66.1,39.6,30.08,WSW,248,1.1,1.1,38,0.00,,,0.00,WUHU216HW,2013-04-14 23:18:00,
2013-04-14 19:23:00,65.7,40.1,30.08,WSW,248,0.0,1.1,39,0.00,,,0.00,WUHU216HW,2013-04-14 23:23:00,
2013-04-14 19:28:00,65.5,39.9,30.08,WSW,248,0.0,0.0,39,0.00,,,0.00,WUHU216HW,2013-04-14 23:28:00,
2013-04-14 19:33:00,65.2,40.2,30.08,WSW,248,0.0,0.0,40,0.00,,,0.00,WUHU216HW,2013-04-14 23:33:00,
2013-04-14 19:38:00,64.6,39.8,30.08,West,270,0.2,0.7,40,0.00,,,0.00,WUHU216HW,2013-04-14 23:38:00,
2013-04-14 19:43:00,64.4,39.6,30.08,WSW,248,0.4,0.7,40,0.00,,,0.00,WUHU216HW,2013-04-14 23:43:00,
2013-04-14 19:48:00,64.3,40.1,30.08,WSW,248,0.0,0.4,41,0.00,,,0.00,WUHU216HW,2013-04-14 23:48:00,
2013-04-14 19:54:00,64.1,39.9,30.08,WSW,248,2.0,2.0,41,0.00,,,0.00,WUHU216HW,2013-04-14 23:54:00,
2013-04-14 19:59:00,64.1,39.2,30.08,WSW,248,3.1,3.1,40,0.00,,,0.00,WUHU216HW,2013-04-14 23:59:00,
2013-04-14 20:04:00,64.1,39.9,30.08,West,270,1.3,3.1,41,0.00,,,0.00,WUHU216HW,2013-04-15 00:04:00,
2013-04-14 20:09:00,63.7,40.7,30.08,WSW,248,0.7,3.1,43,0.00,,,0.00,WUHU216HW,2013-04-15 00:09:00,
2013-04-14 20:14:00,63.5,40.5,30.08,WSW,248,1.6,3.1,43,0.00,,,0.00,WUHU216HW,2013-04-15 00:14:00,
2013-04-14 20:19:00,63.4,40.3,30.08,WSW,248,1.8,1.8,43,0.00,,,0.00,WUHU216HW,2013-04-15 00:19:00,
2013-04-14 20:24:00,62.8,41.1,30.08,WSW,248,3.4,3.4,45,0.00,,,0.00,WUHU216HW,2013-04-15 00:24:00,
2013-04-14 20:29:00,62.6,40.9,30.08,SW,225,0.9,3.4,45,0.00,,,0.00,WUHU216HW,2013-04-15 00:29:00,
2013-04-14 20:34:00,62.5,40.7,30.09,NW,315,0.0,3.4,45,0.00,,,0.00,WUHU216HW,2013-04-15 00:34:00,
2013-04-14 20:39:00,62.1,41.0,30.09,SW,225,0.0,0.9,46,0.00,,,0.00,WUHU216HW,2013-04-15 00:39:00,
2013-04-14 20:44:00,61.9,41.4,30.09,WSW,248,0.7,0.7,47,0.00,,,0.00,WUHU216HW,2013-04-15 00:44:00,
2013-04-14 20:49:00,61.7,41.2,30.09,WSW,248,0.7,0.7,47,0.00,,,0.00,WUHU216HW,2013-04-15 00:49:00,
2013-04-14 20:54:00,61.4,41.5,30.10,SW,225,0.7,0.7,48,0.00,,,0.00,WUHU216HW,2013-04-15 00:54:00,
2013-04-14 20:59:00,61.2,41.9,30.10,SW,225,0.4,0.7,49,0.00,,,0.00,WUHU216HW,2013-04-15 00:59:00,
2013-04-14 21:05:00,61.2,42.5,30.10,SSW,203,2.2,2.2,50,0.00,,,0.00,WUHU216HW,2013-04-15 01:05:00,
2013-04-14 21:10:00,61.2,42.5,30.10,WSW,248,0.9,2.2,50,0.00,,,0.00,WUHU216HW,2013-04-15 01:10:00,
2013-04-14 21:15:00,61.0,42.3,30.10,WSW,248,0.7,2.2,50,0.00,,,0.00,WUHU216HW,2013-04-15 01:15:00,
2013-04-14 21:20:00,61.0,42.3,30.10,SSW,203,0.0,1.1,50,0.00,,,0.00,WUHU216HW,2013-04-15 01:20:00,
2013-04-14 21:25:00,60.8,42.1,30.10,WSW,248,1.1,1.1,50,0.00,,,0.00,WUHU216HW,2013-04-15 01:25:00,
2013-04-14 21:30:00,60.7,41.9,30.10,WSW,248,0.4,2.7,50,0.00,,,0.00,WUHU216HW,2013-04-15 01:30:00,
2013-04-14 21:35:00,60.7,41.9,30.10,SW,225,0.0,2.7,50,0.00,,,0.00,WUHU216HW,2013-04-15 01:35:00,